Time;durP1;ratioP1;P1;durP2;ratioP2;P2;SDS_P1;SDS_P2;PMS_P1;PMS_P2;Temp;Humidity;BMP_temperature;BMP_pressure;BME280_temperature;BME280_humidity;BME280_pressure;Samples;Min_cycle;Max_cycle;Signal;HPM_P1;HPM_P2
2023/09/21 00:00:11;;;;;;;3.95;2.13;;;;;;;;;;5101172;27;20051;-73
2023/09/21 00:02:38;;;;;;;5.30;2.10;;;;;;;;;;5111405;27;20463;-73
2023/09/21 00:05:04;;;;;;;5.47;2.40;;;;;;;;;;5134880;27;20049;-73
2023/09/21 00:07:31;;;;;;;4.97;2.20;;;;;;;;;;5105307;27;20058;-73
2023/09/21 00:09:57;;;;;;;4.85;2.10;;;;;;;;;;5113436;27;20070;-73
2023/09/21 00:12:22;;;;;;;;;;;;;;;;;;5132886;27;20042;-73
2023/09/21 00:14:49;;;;;;;3.25;2.00;;;;;;;;;;5116473;27;19927;-73
2023/09/21 00:17:14;;;;;;;;;;;;;;;;;;5116926;27;20046;-73
2023/09/21 00:19:41;;;;;;;4.47;2.10;;;;;;;;;;5118357;27;19920;-73
2023/09/21 00:22:07;;;;;;;6.57;2.05;;;;;;;;;;5080976;27;20134;-73
2023/09/21 00:24:33;;;;;;;6.00;2.83;;;;;;;;;;5092936;27;20039;-73
2023/09/21 00:26:59;;;;;;;;;;;;;;;;;;5115186;27;20039;-73
2023/09/21 00:29:25;;;;;;;3.20;2.13;;;;;;;;;;5116748;27;19919;-72
2023/09/21 00:31:51;;;;;;;;;;;;;;;;;;5098239;27;20126;-73
2023/09/21 00:34:17;;;;;;;8.80;3.03;;;;;;;;;;5124062;27;20348;-73
2023/09/21 00:36:44;;;;;;;6.78;2.08;;;;;;;;;;5115443;27;20387;-75
2023/09/21 00:39:11;;;;;;;5.30;2.45;;;;;;;;;;5121330;27;20047;-73
2023/09/21 00:41:37;;;;;;;4.90;2.58;;;;;;;;;;5115239;27;20047;-73
2023/09/21 00:44:05;;;;;;;;;;;;;;;;;;5098591;27;20146;-73
2023/09/21 00:46:35;;;;;;;4.15;2.40;;;;;;;;;;5116713;27;19926;-73
2023/09/21 00:49:03;;;;;;;4.63;2.20;;;;;;;;;;5117527;27;20137;-73
2023/09/21 00:51:30;;;;;;;5.05;2.35;;;;;;;;;;5135763;27;20051;-73
2023/09/21 00:53:56;;;;;;;4.93;2.53;;;;;;;;;;5098135;27;20082;-73
2023/09/21 00:56:23;;;;;;;4.00;2.20;;;;;;;;;;5112618;27;20047;-73
2023/09/21 00:58:50;;;;;;;3.63;2.20;;;;;;;;;;5115278;27;20073;-72
2023/09/21 01:01:27;;;;;;;4.28;2.10;;;;;;;;;;5098385;27;20051;-73
2023/09/21 01:03:55;;;;;;;4.78;2.28;;;;;;;;;;5124920;27;20043;-72
2023/09/21 01:06:21;;;;;;;4.10;2.35;;;;;;;;;;5118482;27;20244;-73
2023/09/21 01:08:48;;;;;;;6.72;2.47;;;;;;;;;;5131716;27;20447;-75
2023/09/21 01:11:15;;;;;;;3.92;2.30;;;;;;;;;;5116901;27;20047;-72
2023/09/21 01:13:41;;;;;;;2.92;1.90;;;;;;;;;;5133444;27;20073;-73
2023/09/21 01:16:11;;;;;;;3.90;2.08;;;;;;;;;;5097053;27;20593;-73
2023/09/21 01:18:40;;;;;;;4.35;2.00;;;;;;;;;;5098478;27;20051;-73
2023/09/21 01:21:10;;;;;;;5.00;2.33;;;;;;;;;;5114187;27;20050;-74
2023/09/21 01:23:45;;;;;;;4.82;2.30;;;;;;;;;;5114668;27;20084;-73
2023/09/21 01:26:12;;;;;;;5.05;2.17;;;;;;;;;;5120073;27;20050;-73
2023/09/21 01:28:38;;;;;;;4.43;2.10;;;;;;;;;;5112443;27;20050;-73
2023/09/21 01:31:05;;;;;;;4.20;2.20;;;;;;;;;;5114620;27;20091;-73
2023/09/21 01:33:33;;;;;;;4.13;1.90;;;;;;;;;;5120433;27;20399;-72
2023/09/21 01:35:59;;;;;;;4.20;2.38;;;;;;;;;;5101721;27;20369;-72
2023/09/21 01:38:28;;;;;;;6.63;2.40;;;;;;;;;;5100402;27;20539;-73
2023/09/21 01:40:54;;;;;;;4.63;2.30;;;;;;;;;;5109957;28;20056;-74
2023/09/21 01:43:20;;;;;;;;;;;;;;;;;;5074794;28;20097;-73
2023/09/21 01:45:48;;;;;;;5.03;2.28;;;;;;;;;;5091512;28;20020;-73
2023/09/21 01:48:15;;;;;;;6.30;2.20;;;;;;;;;;5088595;28;20044;-73
2023/09/21 01:50:44;;;;;;;4.50;2.15;;;;;;;;;;5094653;28;20096;-73
2023/09/21 01:53:11;;;;;;;6.53;2.60;;;;;;;;;;5112202;27;20055;-73
2023/09/21 01:55:37;;;;;;;3.03;1.98;;;;;;;;;;5109752;28;20112;-73
2023/09/21 01:58:04;;;;;;;6.05;2.20;;;;;;;;;;5082244;28;20090;-73
2023/09/21 02:00:34;;;;;;;3.67;2.30;;;;;;;;;;5078072;28;20101;-73
2023/09/21 02:03:03;;;;;;;4.32;2.05;;;;;;;;;;5091570;28;20135;-73
2023/09/21 02:05:29;;;;;;;4.65;1.83;;;;;;;;;;5089951;28;20044;-73
2023/09/21 02:07:55;;;;;;;3.55;1.90;;;;;;;;;;5089316;28;20393;-73
2023/09/21 02:10:21;;;;;;;;;;;;;;;;;;5064383;28;20052;-73
2023/09/21 02:12:55;;;;;;;6.30;2.40;;;;;;;;;;5094211;28;20403;-73
2023/09/21 02:15:21;;;;;;;2.97;1.83;;;;;;;;;;5102231;28;20043;-72
2023/09/21 02:17:47;;;;;;;2.78;1.80;;;;;;;;;;5110389;28;20083;-73
2023/09/21 02:20:14;;;;;;;;;;;;;;;;;;5079761;28;20812;-73
2023/09/21 02:22:50;;;;;;;4.70;2.20;;;;;;;;;;5094442;28;19931;-73
2023/09/21 02:25:17;;;;;;;4.65;2.00;;;;;;;;;;5080577;28;20371;-73
2023/09/21 02:27:47;;;;;;;4.50;2.20;;;;;;;;;;5090593;28;20075;-73
2023/09/21 02:30:20;;;;;;;4.07;2.28;;;;;;;;;;5086540;28;20392;-73
2023/09/21 02:32:50;;;;;;;5.88;1.80;;;;;;;;;;5091017;28;20047;-73
2023/09/21 02:35:19;;;;;;;4.40;1.88;;;;;;;;;;5087153;28;20040;-73
2023/09/21 02:37:48;;;;;;;4.20;2.20;;;;;;;;;;5104846;28;20043;-73
2023/09/21 02:40:15;;;;;;;4.35;2.00;;;;;;;;;;5111652;28;20054;-73
2023/09/21 02:42:42;;;;;;;4.60;2.05;;;;;;;;;;5129204;27;20458;-73
2023/09/21 02:45:12;;;;;;;2.70;1.77;;;;;;;;;;5108443;27;20103;-73
2023/09/21 02:47:39;;;;;;;2.67;1.90;;;;;;;;;;5097213;28;20078;-73
2023/09/21 02:50:14;;;;;;;4.80;2.00;;;;;;;;;;5115576;27;20043;-73
2023/09/21 02:52:48;;;;;;;5.33;1.70;;;;;;;;;;5117124;27;20142;-73
2023/09/21 02:55:21;;;;;;;6.00;2.00;;;;;;;;;;5132171;27;20039;-73
2023/09/21 02:57:48;;;;;;;3.25;1.88;;;;;;;;;;5126454;27;20043;-73
2023/09/21 03:00:22;;;;;;;4.78;2.15;;;;;;;;;;5119954;27;20078;-72
2023/09/21 03:02:49;;;;;;;3.92;2.03;;;;;;;;;;5117984;27;20047;-73
2023/09/21 03:05:18;;;;;;;3.35;2.00;;;;;;;;;;5103239;27;20043;-73
2023/09/21 03:07:45;;;;;;;4.07;2.00;;;;;;;;;;5116788;27;20395;-73
2023/09/21 03:10:12;;;;;;;2.70;1.80;;;;;;;;;;5100968;27;20035;-73
2023/09/21 03:12:39;;;;;;;4.70;2.03;;;;;;;;;;5128619;27;20040;-73
2023/09/21 03:15:13;;;;;;;4.25;2.05;;;;;;;;;;5100760;27;20047;-73
2023/09/21 03:17:40;;;;;;;4.15;1.98;;;;;;;;;;5134945;27;20046;-73
2023/09/21 03:20:28;;;;;;;3.42;1.80;;;;;;;;;;5138258;27;20091;-72
2023/09/21 03:22:54;;;;;;;5.40;2.28;;;;;;;;;;5120656;27;20130;-73
2023/09/21 03:25:27;;;;;;;3.80;1.98;;;;;;;;;;5117339;27;20047;-73
2023/09/21 03:27:53;;;;;;;5.28;2.10;;;;;;;;;;5119089;27;20207;-73
2023/09/21 03:30:20;;;;;;;4.50;1.95;;;;;;;;;;5100488;27;20042;-73
2023/09/21 03:32:46;;;;;;;4.55;2.05;;;;;;;;;;5117460;27;20047;-73
2023/09/21 03:35:13;;;;;;;3.60;2.00;;;;;;;;;;5121982;27;20031;-73
2023/09/21 03:37:43;;;;;;;2.58;1.60;;;;;;;;;;5136933;27;20125;-73
2023/09/21 03:40:11;;;;;;;3.38;2.00;;;;;;;;;;5123239;27;20398;-73
2023/09/21 03:42:37;;;;;;;4.70;2.08;;;;;;;;;;5128244;27;20046;-73
2023/09/21 03:45:07;;;;;;;2.95;1.67;;;;;;;;;;5135611;27;20080;-76
2023/09/21 03:47:33;;;;;;;3.53;1.98;;;;;;;;;;5137392;27;20483;-73
2023/09/21 03:50:00;;;;;;;5.10;2.58;;;;;;;;;;5136463;27;20053;-74
2023/09/21 03:52:27;;;;;;;5.25;2.25;;;;;;;;;;5134461;27;20050;-73
2023/09/21 03:54:54;;;;;;;3.75;2.00;;;;;;;;;;5121126;27;20043;-73
2023/09/21 03:57:21;;;;;;;2.67;1.80;;;;;;;;;;5129405;27;20053;-73
2023/09/21 03:59:46;;;;;;;;;;;;;;;;;;5135953;27;20043;-73
2023/09/21 04:02:17;;;;;;;4.10;1.95;;;;;;;;;;5108483;27;20378;-72
2023/09/21 04:04:44;;;;;;;3.17;2.05;;;;;;;;;;5120875;27;20047;-73
2023/09/21 04:07:15;;;;;;;3.70;1.95;;;;;;;;;;5096900;27;20062;-73
2023/09/21 04:09:41;;;;;;;4.45;1.88;;;;;;;;;;5132661;27;20043;-73
2023/09/21 04:12:08;;;;;;;4.60;1.90;;;;;;;;;;5114958;27;20095;-73
2023/09/21 04:14:34;;;;;;;3.90;2.00;;;;;;;;;;5119969;27;20134;-73
2023/09/21 04:17:00;;;;;;;3.83;1.88;;;;;;;;;;5119492;27;20054;-73
2023/09/21 04:19:26;;;;;;;;;;;;;;;;;;5134004;27;20062;-74
2023/09/21 04:21:52;;;;;;;3.28;1.92;;;;;;;;;;5114303;27;20267;-73
2023/09/21 04:24:18;;;;;;;7.55;2.30;;;;;;;;;;5118759;27;20043;-73
2023/09/21 04:26:44;;;;;;;5.68;2.10;;;;;;;;;;5128029;27;20050;-72
2023/09/21 04:29:11;;;;;;;;;;;;;;;;;;5099618;27;20089;-73
2023/09/21 04:31:38;;;;;;;5.10;1.98;;;;;;;;;;5122678;27;19919;-73
2023/09/21 04:34:04;;;;;;;4.63;1.80;;;;;;;;;;5116006;27;20043;-73
2023/09/21 04:36:30;;;;;;;5.18;1.90;;;;;;;;;;5115930;27;20411;-73
2023/09/21 04:38:56;;;;;;;;;;;;;;;;;;5115736;27;20115;-73
2023/09/21 04:41:23;;;;;;;4.55;1.77;;;;;;;;;;5121517;27;19918;-73
2023/09/21 04:43:49;;;;;;;3.58;1.70;;;;;;;;;;5119949;27;20086;-73
2023/09/21 04:46:17;;;;;;;4.63;1.92;;;;;;;;;;5122050;27;20068;-73
2023/09/21 04:48:43;;;;;;;3.13;1.90;;;;;;;;;;5099283;27;20047;-73
2023/09/21 04:51:11;;;;;;;;;;;;;;;;;;5127993;27;20038;-76
2023/09/21 04:53:37;;;;;;;4.35;1.95;;;;;;;;;;5136466;27;19970;-73
2023/09/21 04:56:04;;;;;;;4.97;2.00;;;;;;;;;;5120312;27;20046;-73
2023/09/21 04:58:30;;;;;;;4.28;1.90;;;;;;;;;;5101457;27;20137;-73
2023/09/21 05:00:56;;;;;;;;;;;;;;;;;;5100388;27;20050;-73
2023/09/21 05:03:22;;;;;;;7.45;2.40;;;;;;;;;;5114926;27;19920;-73
2023/09/21 05:05:49;;;;;;;4.55;2.15;;;;;;;;;;5121771;27;20039;-73
2023/09/21 05:08:15;;;;;;;5.03;2.10;;;;;;;;;;5134386;27;20074;-73
2023/09/21 05:10:41;;;;;;;3.03;1.77;;;;;;;;;;5119650;27;20055;-74
2023/09/21 05:13:07;;;;;;;3.92;1.70;;;;;;;;;;5098363;27;20047;-73
2023/09/21 05:15:33;;;;;;;;;;;;;;;;;;5105218;27;20039;-73
2023/09/21 05:17:59;;;;;;;5.38;2.10;;;;;;;;;;5118570;27;20245;-73
2023/09/21 05:20:25;;;;;;;6.40;1.92;;;;;;;;;;5132367;27;20074;-73
2023/09/21 05:22:52;;;;;;;5.85;2.00;;;;;;;;;;5113889;27;20051;-73
2023/09/21 05:25:18;;;;;;;2.97;1.73;;;;;;;;;;5115207;27;20047;-73
2023/09/21 05:27:45;;;;;;;5.50;1.70;;;;;;;;;;5116600;27;20085;-73
2023/09/21 05:30:11;;;;;;;;;;;;;;;;;;5099055;27;20100;-73
2023/09/21 05:32:37;;;;;;;3.50;1.70;;;;;;;;;;5114691;27;19919;-73
2023/09/21 05:35:05;;;;;;;3.33;1.50;;;;;;;;;;5098445;27;20491;-73
2023/09/21 05:37:31;;;;;;;2.90;1.75;;;;;;;;;;5079834;27;20051;-73
2023/09/21 05:39:57;;;;;;;;;;;;;;;;;;5112764;27;20403;-73
2023/09/21 05:42:25;;;;;;;3.55;1.80;;;;;;;;;;5135270;27;20370;-73
2023/09/21 05:44:52;;;;;;;2.35;1.60;;;;;;;;;;5135651;27;20077;-73
2023/09/21 05:47:19;;;;;;;3.63;1.80;;;;;;;;;;5117767;27;20039;-73
2023/09/21 05:49:45;;;;;;;12.10;1.90;;;;;;;;;;5135832;27;20069;-73
2023/09/21 05:52:16;;;;;;;;;;;;;;;;;;5114494;27;20130;-73
2023/09/21 05:54:43;;;;;;;3.40;1.80;;;;;;;;;;5131698;27;19926;-73
2023/09/21 05:57:09;;;;;;;7.10;1.70;;;;;;;;;;5115554;27;20058;-73
2023/09/21 05:59:36;;;;;;;3.47;1.70;;;;;;;;;;5116757;27;20043;-75
2023/09/21 06:02:05;;;;;;;3.33;1.83;;;;;;;;;;5113408;27;20050;-74
2023/09/21 06:04:31;;;;;;;4.97;1.75;;;;;;;;;;5113305;28;20053;-74
2023/09/21 06:06:58;;;;;;;2.90;1.98;;;;;;;;;;5113768;28;20047;-72
2023/09/21 06:09:24;;;;;;;3.28;1.83;;;;;;;;;;5113532;27;20076;-73
2023/09/21 06:11:51;;;;;;;5.63;1.75;;;;;;;;;;5097743;28;20089;-73
2023/09/21 06:14:20;;;;;;;3.05;1.73;;;;;;;;;;5128918;27;20424;-73
2023/09/21 06:16:47;;;;;;;3.72;1.92;;;;;;;;;;5114556;28;20050;-73
2023/09/21 06:19:13;;;;;;;5.15;2.10;;;;;;;;;;5111221;27;20046;-72
2023/09/21 06:21:40;;;;;;;5.53;2.08;;;;;;;;;;5116729;27;20035;-72
2023/09/21 06:24:06;;;;;;;4.22;1.70;;;;;;;;;;5100130;27;20039;-74
2023/09/21 06:26:32;;;;;;;4.03;2.10;;;;;;;;;;5121993;27;20046;-73
2023/09/21 06:28:59;;;;;;;3.60;1.70;;;;;;;;;;5116245;27;20103;-73
2023/09/21 06:31:25;;;;;;;5.35;1.90;;;;;;;;;;5112578;27;20046;-73
2023/09/21 06:33:57;;;;;;;5.43;2.08;;;;;;;;;;5122310;27;20047;-72
2023/09/21 06:36:24;;;;;;;6.90;2.05;;;;;;;;;;5104904;27;20161;-73
2023/09/21 06:38:51;;;;;;;4.28;1.90;;;;;;;;;;5119042;27;20057;-71
2023/09/21 06:41:17;;;;;;;6.72;2.05;;;;;;;;;;5120217;27;20404;-74
2023/09/21 06:43:44;;;;;;;2.92;1.98;;;;;;;;;;5114690;27;20059;-73
2023/09/21 06:46:10;;;;;;;4.10;2.10;;;;;;;;;;5115039;28;20066;-73
2023/09/21 06:48:37;;;;;;;4.95;1.90;;;;;;;;;;5097723;28;20047;-73
2023/09/21 06:51:04;;;;;;;5.35;2.28;;;;;;;;;;5114252;28;20047;-78
2023/09/21 06:53:31;;;;;;;8.05;2.30;;;;;;;;;;5113884;28;20067;-74
2023/09/21 06:55:58;;;;;;;7.32;2.15;;;;;;;;;;5098282;28;20152;-73
2023/09/21 06:58:24;;;;;;;5.22;2.40;;;;;;;;;;5098044;28;20051;-77
2023/09/21 07:00:50;;;;;;;4.45;1.80;;;;;;;;;;5115046;28;20051;-73
2023/09/21 07:03:17;;;;;;;8.48;2.22;;;;;;;;;;5098289;27;20045;-73
2023/09/21 07:05:48;;;;;;;3.80;1.70;;;;;;;;;;5114515;28;20127;-73
2023/09/21 07:08:14;;;;;;;5.22;2.00;;;;;;;;;;5113599;28;20101;-73
2023/09/21 07:10:40;;;;;;;2.92;1.70;;;;;;;;;;5113930;28;20143;-73
2023/09/21 07:13:09;;;;;;;;;;;;;;;;;;5115095;28;20051;-73
2023/09/21 07:15:37;;;;;;;3.13;1.80;;;;;;;;;;5114230;28;19920;-74
2023/09/21 07:18:05;;;;;;;6.30;2.03;;;;;;;;;;5114203;28;20047;-74
2023/09/21 07:20:31;;;;;;;3.15;1.70;;;;;;;;;;5096951;28;20055;-74
2023/09/21 07:22:57;;;;;;;4.07;1.98;;;;;;;;;;5112666;27;20686;-74
2023/09/21 07:25:25;;;;;;;5.65;2.42;;;;;;;;;;5101844;27;20047;-74
2023/09/21 07:27:54;;;;;;;3.03;1.70;;;;;;;;;;5123222;27;20066;-68
2023/09/21 07:30:32;;;;;;;5.22;2.20;;;;;;;;;;5123160;27;20070;-74
2023/09/21 07:32:59;;;;;;;6.13;2.20;;;;;;;;;;5116987;27;20099;-72
2023/09/21 07:35:26;;;;;;;5.57;2.17;;;;;;;;;;5117283;27;20096;-72
2023/09/21 07:37:52;;;;;;;5.82;2.00;;;;;;;;;;5133283;27;20501;-73
2023/09/21 07:40:22;;;;;;;3.88;2.00;;;;;;;;;;5137756;27;20054;-75
2023/09/21 07:42:50;;;;;;;6.55;2.20;;;;;;;;;;5136139;27;20621;-73
2023/09/21 07:45:16;;;;;;;4.47;2.00;;;;;;;;;;5116759;27;20404;-74
2023/09/21 07:47:43;;;;;;;7.47;2.20;;;;;;;;;;5130932;27;20131;-74
2023/09/21 07:50:10;;;;;;;4.72;2.05;;;;;;;;;;5116718;27;20046;-74
2023/09/21 07:52:37;;;;;;;4.07;2.00;;;;;;;;;;5120303;27;20043;-74
2023/09/21 07:55:03;;;;;;;5.07;1.90;;;;;;;;;;5115865;27;20042;-74
2023/09/21 07:57:33;;;;;;;6.65;2.17;;;;;;;;;;5134898;27;20123;-76
2023/09/21 08:00:00;;;;;;;5.15;2.00;;;;;;;;;;5131941;27;20091;-74
2023/09/21 08:02:27;;;;;;;4.70;1.92;;;;;;;;;;5133826;27;20061;-73
2023/09/21 08:04:54;;;;;;;4.78;2.00;;;;;;;;;;5130237;27;20043;-75
2023/09/21 08:07:24;;;;;;;5.25;2.35;;;;;;;;;;5125946;27;20043;-73
2023/09/21 08:09:50;;;;;;;3.17;2.00;;;;;;;;;;5131825;27;20079;-74
2023/09/21 08:12:16;;;;;;;4.40;2.28;;;;;;;;;;5134604;27;20126;-73
2023/09/21 08:14:43;;;;;;;;;;;;;;;;;;5116048;27;20051;-73
2023/09/21 08:17:10;;;;;;;7.20;2.03;;;;;;;;;;5116258;27;20009;-73
2023/09/21 08:19:38;;;;;;;8.40;2.47;;;;;;;;;;5107936;27;20043;-73
2023/09/21 08:22:04;;;;;;;5.65;2.10;;;;;;;;;;5117393;27;20039;-73
2023/09/21 08:24:31;;;;;;;;;;;;;;;;;;5120755;27;20091;-73
2023/09/21 08:26:57;;;;;;;6.57;2.25;;;;;;;;;;5134033;27;19919;-73
2023/09/21 08:29:23;;;;;;;8.18;2.30;;;;;;;;;;5132813;27;20043;-76
2023/09/21 08:31:49;;;;;;;;;;;;;;;;;;5117114;27;20431;-73
2023/09/21 08:34:16;;;;;;;6.68;2.50;;;;;;;;;;5103415;27;19974;-74
2023/09/21 08:36:44;;;;;;;11.57;2.95;;;;;;;;;;5128551;27;20484;-73
2023/09/21 08:39:10;;;;;;;5.63;2.55;;;;;;;;;;5116172;27;20043;-74
2023/09/21 08:41:38;;;;;;;6.72;2.47;;;;;;;;;;5108549;27;20059;-77
2023/09/21 08:44:06;;;;;;;5.18;2.47;;;;;;;;;;5117214;27;20077;-72
2023/09/21 08:46:33;;;;;;;5.72;2.20;;;;;;;;;;5118439;27;20368;-73
2023/09/21 08:49:00;;;;;;;7.53;2.60;;;;;;;;;;5130164;27;20083;-74
2023/09/21 08:51:26;;;;;;;5.88;2.85;;;;;;;;;;5121121;27;20169;-75
2023/09/21 08:53:54;;;;;;;6.43;2.90;;;;;;;;;;5119331;27;20043;-75
2023/09/21 08:56:20;;;;;;;3.75;2.22;;;;;;;;;;5110469;27;20055;-74
2023/09/21 08:58:47;;;;;;;;;;;;;;;;;;5098588;27;20047;-79
2023/09/21 09:01:14;;;;;;;6.38;2.47;;;;;;;;;;5119975;27;19923;-74
2023/09/21 09:03:40;;;;;;;6.57;2.50;;;;;;;;;;5110144;27;20047;-74
2023/09/21 09:06:06;;;;;;;6.93;2.47;;;;;;;;;;5120692;27;20038;-76
2023/09/21 09:08:32;;;;;;;6.10;2.58;;;;;;;;;;5098462;27;20104;-74
2023/09/21 09:10:58;;;;;;;;;;;;;;;;;;5098664;27;20043;-74
2023/09/21 09:13:34;;;;;;;4.43;2.20;;;;;;;;;;5115675;27;19923;-75
2023/09/21 09:16:00;;;;;;;4.95;2.35;;;;;;;;;;5098130;27;20288;-75
2023/09/21 09:18:30;;;;;;;8.63;2.53;;;;;;;;;;5115570;27;20074;-75
2023/09/21 09:20:56;;;;;;;7.55;2.60;;;;;;;;;;5115183;27;20046;-75
2023/09/21 09:23:22;;;;;;;4.28;2.30;;;;;;;;;;5097669;27;20085;-75
2023/09/21 09:25:51;;;;;;;5.60;2.63;;;;;;;;;;5135773;27;20047;-75
2023/09/21 09:28:17;;;;;;;7.72;2.60;;;;;;;;;;5133822;27;20039;-75
2023/09/21 09:30:48;;;;;;;4.90;2.47;;;;;;;;;;5135463;27;20051;-75
2023/09/21 09:33:16;;;;;;;7.03;2.67;;;;;;;;;;5097340;27;20480;-75
2023/09/21 09:35:45;;;;;;;6.93;2.78;;;;;;;;;;5131179;27;20054;-76
2023/09/21 09:38:12;;;;;;;5.63;2.70;;;;;;;;;;5134291;27;20134;-75
2023/09/21 09:40:39;;;;;;;6.85;3.63;;;;;;;;;;5118623;27;20495;-75
2023/09/21 09:43:05;;;;;;;4.53;2.58;;;;;;;;;;5134885;27;20042;-75
2023/09/21 09:45:31;;;;;;;7.88;2.88;;;;;;;;;;5134882;27;20042;-75
2023/09/21 09:48:01;;;;;;;8.85;2.90;;;;;;;;;;5134304;27;20078;-73
2023/09/21 09:50:35;;;;;;;5.45;2.55;;;;;;;;;;5134601;27;20125;-74
2023/09/21 09:53:06;;;;;;;6.55;2.97;;;;;;;;;;5112739;27;20051;-73
2023/09/21 09:55:33;;;;;;;9.15;3.28;;;;;;;;;;5116426;27;20126;-73
2023/09/21 09:58:08;;;;;;;8.30;3.33;;;;;;;;;;5114183;27;20427;-75
2023/09/21 10:00:44;;;;;;;4.32;2.75;;;;;;;;;;5115021;27;20100;-74
2023/09/21 10:03:12;;;;;;;6.72;2.90;;;;;;;;;;5114421;27;20136;-73
2023/09/21 10:05:39;;;;;;;5.70;3.00;;;;;;;;;;5140279;27;20043;-75
2023/09/21 10:08:10;;;;;;;7.40;2.90;;;;;;;;;;5120197;27;20127;-75
2023/09/21 10:10:44;;;;;;;6.50;3.03;;;;;;;;;;5138752;27;20042;-75
2023/09/21 10:13:10;;;;;;;7.20;3.33;;;;;;;;;;5138016;27;20054;-75
2023/09/21 10:15:36;;;;;;;8.05;3.70;;;;;;;;;;5118560;27;20053;-74
2023/09/21 10:18:04;;;;;;;7.13;3.38;;;;;;;;;;5117510;27;20039;-74
2023/09/21 10:20:32;;;;;;;6.85;3.60;;;;;;;;;;5118444;27;20503;-74
2023/09/21 10:23:05;;;;;;;6.85;3.22;;;;;;;;;;5133178;27;20050;-75
2023/09/21 10:25:38;;;;;;;5.43;3.15;;;;;;;;;;5137499;27;20047;-74
2023/09/21 10:28:27;;;;;;;8.60;3.75;;;;;;;;;;5124407;27;20487;-74
2023/09/21 10:30:53;;;;;;;7.07;3.70;;;;;;;;;;5137223;27;20555;-74
2023/09/21 10:33:20;;;;;;;8.48;3.85;;;;;;;;;;5124602;27;20483;-74
2023/09/21 10:35:46;;;;;;;8.88;3.78;;;;;;;;;;5124297;27;20387;-74
2023/09/21 10:38:16;;;;;;;7.28;3.88;;;;;;;;;;5142904;27;20041;-74
2023/09/21 10:40:43;;;;;;;11.02;4.50;;;;;;;;;;5121656;27;20058;-73
2023/09/21 10:43:27;;;;;;;7.75;4.30;;;;;;;;;;5114023;28;20039;-73
2023/09/21 10:45:57;;;;;;;10.15;4.40;;;;;;;;;;5114140;28;20049;-74
2023/09/21 10:48:24;;;;;;;10.23;4.97;;;;;;;;;;5114105;28;20078;-74
2023/09/21 10:50:51;;;;;;;10.13;5.13;;;;;;;;;;5114238;28;20055;-75
2023/09/21 10:53:17;;;;;;;7.90;4.50;;;;;;;;;;5113071;28;20116;-75
2023/09/21 10:55:43;;;;;;;9.27;4.53;;;;;;;;;;5114652;28;20039;-74
2023/09/21 10:58:09;;;;;;;;;;;;;;;;;;5121457;27;20475;-74
2023/09/21 11:00:37;;;;;;;8.63;4.50;;;;;;;;;;5130476;28;19926;-74
2023/09/21 11:03:04;;;;;;;10.20;4.40;;;;;;;;;;5113389;28;20066;-73
2023/09/21 11:05:30;;;;;;;8.63;4.55;;;;;;;;;;5097421;28;20039;-74
2023/09/21 11:07:56;;;;;;;;;;;;;;;;;;5112769;28;20047;-74
2023/09/21 11:10:22;;;;;;;9.30;4.55;;;;;;;;;;5114705;27;19925;-74
2023/09/21 11:12:48;;;;;;;;;;;;;;;;;;5118494;27;20039;-74
2023/09/21 11:15:19;;;;;;;9.27;4.43;;;;;;;;;;5100762;27;19930;-74
2023/09/21 11:17:46;;;;;;;10.13;4.75;;;;;;;;;;5117844;27;20484;-73
2023/09/21 11:20:13;;;;;;;8.95;4.55;;;;;;;;;;5118951;27;20042;-73
2023/09/21 11:22:43;;;;;;;10.25;5.10;;;;;;;;;;5120116;27;20050;-72
2023/09/21 11:25:11;;;;;;;15.20;5.05;;;;;;;;;;5117047;27;20088;-73
2023/09/21 11:27:39;;;;;;;8.18;5.28;;;;;;;;;;5135107;27;20074;-74
2023/09/21 11:30:07;;;;;;;11.43;5.20;;;;;;;;;;5116982;27;20047;-74
2023/09/21 11:32:41;;;;;;;9.02;5.20;;;;;;;;;;5117571;27;20047;-75
2023/09/21 11:35:07;;;;;;;7.75;4.32;;;;;;;;;;5117389;27;20047;-75
2023/09/21 11:37:33;;;;;;;5.63;3.45;;;;;;;;;;5116280;27;20043;-74
2023/09/21 11:39:59;;;;;;;6.13;3.20;;;;;;;;;;5100130;27;20445;-75
2023/09/21 11:42:26;;;;;;;5.50;3.10;;;;;;;;;;5122252;27;20099;-73
2023/09/21 11:44:52;;;;;;;5.30;3.00;;;;;;;;;;5117489;27;20480;-74
2023/09/21 11:47:22;;;;;;;5.82;3.00;;;;;;;;;;5116488;27;20050;-73
2023/09/21 11:49:52;;;;;;;5.47;2.92;;;;;;;;;;5117661;27;20155;-73
2023/09/21 11:52:20;;;;;;;5.43;2.45;;;;;;;;;;5114832;27;20055;-74
2023/09/21 11:54:48;;;;;;;3.85;2.53;;;;;;;;;;5117375;27;20051;-74
2023/09/21 11:57:14;;;;;;;3.38;2.03;;;;;;;;;;5116877;27;20047;-74
2023/09/21 11:59:42;;;;;;;4.05;1.90;;;;;;;;;;5083636;27;20118;-75
2023/09/21 12:02:13;;;;;;;5.60;2.08;;;;;;;;;;5082763;27;20134;-74
2023/09/21 12:04:41;;;;;;;3.67;2.10;;;;;;;;;;5100187;27;20035;-73
2023/09/21 12:07:09;;;;;;;10.32;2.40;;;;;;;;;;5107957;27;20484;-74
2023/09/21 12:09:40;;;;;;;4.47;2.30;;;;;;;;;;5103234;27;20086;-75
2023/09/21 12:12:07;;;;;;;3.20;2.22;;;;;;;;;;5116448;27;20539;-74
2023/09/21 12:14:34;;;;;;;4.32;2.30;;;;;;;;;;5116895;27;20043;-74
2023/09/21 12:17:11;;;;;;;4.63;2.20;;;;;;;;;;5116221;27;20138;-78
2023/09/21 12:19:39;;;;;;;4.03;2.28;;;;;;;;;;5131879;27;20043;-74
2023/09/21 12:22:08;;;;;;;4.30;2.47;;;;;;;;;;5117547;27;20134;-73
2023/09/21 12:24:35;;;;;;;5.57;2.10;;;;;;;;;;5137157;27;20045;-73
2023/09/21 12:27:05;;;;;;;6.22;2.60;;;;;;;;;;5120053;27;20042;-79
2023/09/21 12:29:31;;;;;;;3.78;2.30;;;;;;;;;;5137591;27;20099;-74
2023/09/21 12:31:58;;;;;;;3.50;2.28;;;;;;;;;;5120040;27;20444;-73
2023/09/21 12:34:24;;;;;;;3.45;2.28;;;;;;;;;;5118993;27;20095;-73
2023/09/21 12:36:52;;;;;;;4.28;2.50;;;;;;;;;;5135163;27;20046;-74
2023/09/21 12:39:19;;;;;;;5.57;2.72;;;;;;;;;;5119312;27;20051;-73
2023/09/21 12:41:45;;;;;;;4.28;2.50;;;;;;;;;;5136818;27;20080;-73
2023/09/21 12:44:11;;;;;;;3.65;2.17;;;;;;;;;;5124692;27;20129;-73
2023/09/21 12:46:37;;;;;;;4.43;2.15;;;;;;;;;;5116207;27;20100;-73
2023/09/21 12:49:07;;;;;;;5.53;2.20;;;;;;;;;;5099066;27;20411;-78
2023/09/21 12:51:34;;;;;;;4.20;1.48;;;;;;;;;;5115418;27;20130;-72
2023/09/21 12:54:07;;;;;;;2.28;1.33;;;;;;;;;;5115890;27;20399;-73
2023/09/21 12:56:33;;;;;;;3.72;1.50;;;;;;;;;;5116321;27;20047;-73
2023/09/21 12:58:59;;;;;;;2.58;1.27;;;;;;;;;;5118918;27;20058;-73
2023/09/21 13:01:25;;;;;;;;;;;;;;;;;;5118262;27;20050;-73
2023/09/21 13:03:55;;;;;;;2.17;1.30;;;;;;;;;;5098949;27;20377;-72
2023/09/21 13:06:22;;;;;;;2.60;1.10;;;;;;;;;;5114731;27;20054;-72
2023/09/21 13:08:48;;;;;;;1.27;1.10;;;;;;;;;;5102595;27;20047;-73
2023/09/21 13:11:14;;;;;;;2.78;0.95;;;;;;;;;;5118966;27;20046;-73
2023/09/21 13:13:40;;;;;;;0.93;0.82;;;;;;;;;;5119412;27;20107;-73
2023/09/21 13:16:06;;;;;;;;;;;;;;;;;;5136249;27;20046;-73
2023/09/21 13:18:33;;;;;;;1.55;0.98;;;;;;;;;;5136077;27;19942;-73
2023/09/21 13:20:59;;;;;;;1.33;0.80;;;;;;;;;;5119438;27;20043;-73
2023/09/21 13:23:26;;;;;;;1.08;0.80;;;;;;;;;;5134032;27;20870;-73
2023/09/21 13:25:52;;;;;;;4.20;0.98;;;;;;;;;;5118457;27;20046;-80
2023/09/21 13:28:19;;;;;;;1.83;0.90;;;;;;;;;;5099264;27;20050;-79
2023/09/21 13:30:47;;;;;;;1.40;0.90;;;;;;;;;;5122962;27;20366;-77
2023/09/21 13:33:14;;;;;;;1.10;0.95;;;;;;;;;;5123001;27;20063;-76
2023/09/21 13:35:40;;;;;;;1.42;1.08;;;;;;;;;;5111507;27;20038;-76
2023/09/21 13:38:06;;;;;;;;;;;;;;;;;;5118085;27;20046;-83
2023/09/21 13:40:32;;;;;;;1.00;0.80;;;;;;;;;;5127332;27;19967;-76
2023/09/21 13:43:01;;;;;;;2.80;0.90;;;;;;;;;;5134697;27;20050;-77
2023/09/21 13:45:27;;;;;;;2.15;0.95;;;;;;;;;;5123907;27;20054;-77
2023/09/21 13:47:53;;;;;;;2.08;0.70;;;;;;;;;;5096801;27;20129;-77
2023/09/21 13:50:19;;;;;;;1.13;0.90;;;;;;;;;;5111061;27;20515;-76
2023/09/21 13:52:45;;;;;;;3.42;1.02;;;;;;;;;;5094586;27;20174;-79
2023/09/21 13:55:11;;;;;;;;;;;;;;;;;;5100189;27;20050;-78
2023/09/21 13:57:40;;;;;;;0.93;0.88;;;;;;;;;;5101536;27;19923;-76
2023/09/21 14:00:07;;;;;;;1.58;0.73;;;;;;;;;;5116355;27;20049;-76
2023/09/21 14:02:38;;;;;;;1.25;0.70;;;;;;;;;;5099271;27;20079;-76
2023/09/21 14:05:04;;;;;;;2.78;1.00;;;;;;;;;;5115613;27;20074;-76
2023/09/21 14:07:30;;;;;;;2.42;0.93;;;;;;;;;;5114930;27;20031;-77
2023/09/21 14:09:56;;;;;;;1.00;0.90;;;;;;;;;;5096260;27;20047;-76
2023/09/21 14:12:22;;;;;;;;;;;;;;;;;;5114248;27;20095;-77
2023/09/21 14:14:48;;;;;;;1.00;0.80;;;;;;;;;;5108973;27;20009;-77
2023/09/21 14:17:14;;;;;;;1.13;0.77;;;;;;;;;;5100292;27;20039;-77
2023/09/21 14:19:40;;;;;;;1.85;0.80;;;;;;;;;;5097580;27;20562;-76
2023/09/21 14:22:06;;;;;;;;;;;;;;;;;;5116927;27;20392;-78
2023/09/21 14:24:33;;;;;;;1.13;0.73;;;;;;;;;;5138332;27;19923;-76
2023/09/21 14:26:59;;;;;;;1.30;1.00;;;;;;;;;;5112190;28;20035;-77
2023/09/21 14:29:26;;;;;;;;;;;;;;;;;;5114339;28;20400;-76
2023/09/21 14:31:52;;;;;;;1.52;0.90;;;;;;;;;;5131824;27;19919;-76
2023/09/21 14:34:17;;;;;;;;;;;;;;;;;;5106469;28;20427;-76
2023/09/21 14:36:45;;;;;;;0.90;0.90;;;;;;;;;;5113544;27;19944;-80
2023/09/21 14:39:11;;;;;;;1.92;0.85;;;;;;;;;;5086625;28;20073;-83
2023/09/21 14:41:37;;;;;;;1.83;0.70;;;;;;;;;;5104794;27;20070;-82
2023/09/21 14:44:04;;;;;;;2.60;0.80;;;;;;;;;;5103926;27;20038;-79
2023/09/21 14:46:30;;;;;;;0.80;0.80;;;;;;;;;;5122250;27;20039;-78
2023/09/21 14:48:56;;;;;;;;;;;;;;;;;;5118795;27;20039;-78
2023/09/21 14:51:22;;;;;;;2.55;1.00;;;;;;;;;;5121809;27;19931;-80
2023/09/21 14:53:51;;;;;;;;;;;;;;;;;;5110384;27;20043;-80